sensor_id;sensor_type;location;lat;lon;timestamp;pressure;altitude;pressure_sealevel;temperature;humidity
35704;BME280;21820;51.112;13.762;2023-04-06T00:01:07;99857.25;;;21.78;56.45
35704;BME280;21820;51.112;13.762;2023-04-06T00:03:33;99859.06;;;21.78;56.68
35704;BME280;21820;51.112;13.762;2023-04-06T00:05:59;99846.88;;;21.67;56.22
35704;BME280;21820;51.112;13.762;2023-04-06T00:08:25;99858.47;;;21.74;56.86
35704;BME280;21820;51.112;13.762;2023-04-06T00:10:51;99856.44;;;21.78;56.47
35704;BME280;21820;51.112;13.762;2023-04-06T00:13:16;99853.88;;;21.67;56.81
35704;BME280;21820;51.112;13.762;2023-04-06T00:15:42;99858.31;;;21.76;56.86
35704;BME280;21820;51.112;13.762;2023-04-06T00:18:07;99857.75;;;21.72;56.81
35704;BME280;21820;51.112;13.762;2023-04-06T00:20:33;99865.75;;;21.71;57.01
35704;BME280;21820;51.112;13.762;2023-04-06T00:22:58;99856.69;;;21.75;56.98
35704;BME280;21820;51.112;13.762;2023-04-06T00:25:25;99859.69;;;21.70;56.49
35704;BME280;21820;51.112;13.762;2023-04-06T00:27:51;99863.28;;;21.69;57.11
35704;BME280;21820;51.112;13.762;2023-04-06T00:30:16;99868.50;;;21.69;56.99
35704;BME280;21820;51.112;13.762;2023-04-06T00:32:42;99860.78;;;21.68;56.95
35704;BME280;21820;51.112;13.762;2023-04-06T00:35:07;99851.94;;;21.59;56.66
35704;BME280;21820;51.112;13.762;2023-04-06T00:37:33;99863.28;;;21.69;57.17
35704;BME280;21820;51.112;13.762;2023-04-06T00:39:58;99856.50;;;21.67;56.75
35704;BME280;21820;51.112;13.762;2023-04-06T00:42:24;99856.63;;;21.65;57.00
35704;BME280;21820;51.112;13.762;2023-04-06T00:44:54;99850.72;;;21.63;56.97
35704;BME280;21820;51.112;13.762;2023-04-06T00:47:20;99848.78;;;21.65;57.12
35704;BME280;21820;51.112;13.762;2023-04-06T00:49:46;99835.97;;;21.53;56.49
35704;BME280;21820;51.112;13.762;2023-04-06T00:52:11;99851.69;;;21.62;56.66
35704;BME280;21820;51.112;13.762;2023-04-06T00:54:36;99856.91;;;21.62;57.16
35704;BME280;21820;51.112;13.762;2023-04-06T00:57:02;99854.28;;;21.62;56.76
35704;BME280;21820;51.112;13.762;2023-04-06T00:59:28;99855.53;;;21.58;57.02
35704;BME280;21820;51.112;13.762;2023-04-06T01:01:54;99860.88;;;21.57;56.50
35704;BME280;21820;51.112;13.762;2023-04-06T01:04:20;99853.28;;;21.54;57.13
35704;BME280;21820;51.112;13.762;2023-04-06T01:06:48;99855.78;;;21.55;57.13
35704;BME280;21820;51.112;13.762;2023-04-06T01:09:13;99862.53;;;21.58;56.93
35704;BME280;21820;51.112;13.762;2023-04-06T01:11:39;99856.47;;;21.57;57.19
35704;BME280;21820;51.112;13.762;2023-04-06T01:14:04;99857.44;;;21.56;56.75
35704;BME280;21820;51.112;13.762;2023-04-06T01:16:30;99853.88;;;21.57;56.64
35704;BME280;21820;51.112;13.762;2023-04-06T01:18:55;99852.22;;;21.56;57.34
35704;BME280;21820;51.112;13.762;2023-04-06T01:21:21;99842.81;;;21.44;56.77
35704;BME280;21820;51.112;13.762;2023-04-06T01:23:47;99855.78;;;21.55;56.91
35704;BME280;21820;51.112;13.762;2023-04-06T01:26:13;99848.06;;;21.54;56.82
35704;BME280;21820;51.112;13.762;2023-04-06T01:28:39;99848.91;;;21.54;56.88
35704;BME280;21820;51.112;13.762;2023-04-06T01:31:06;99845.59;;;21.52;56.93
35704;BME280;21820;51.112;13.762;2023-04-06T01:33:32;99842.13;;;21.52;57.51
35704;BME280;21820;51.112;13.762;2023-04-06T01:35:57;99836.75;;;21.44;56.92
35704;BME280;21820;51.112;13.762;2023-04-06T01:38:22;99851.78;;;21.51;57.55
35704;BME280;21820;51.112;13.762;2023-04-06T01:40:48;99831.50;;;21.44;57.16
35704;BME280;21820;51.112;13.762;2023-04-06T01:43:13;99838.72;;;21.51;57.42
35704;BME280;21820;51.112;13.762;2023-04-06T01:45:39;99859.38;;;21.54;57.36
35704;BME280;21820;51.112;13.762;2023-04-06T01:48:06;99848.06;;;21.54;57.35
35704;BME280;21820;51.112;13.762;2023-04-06T01:50:32;99841.84;;;21.45;57.00
35704;BME280;21820;51.112;13.762;2023-04-06T01:52:57;99847.38;;;21.52;57.22
35704;BME280;21820;51.112;13.762;2023-04-06T01:55:23;99842.03;;;21.53;57.60
35704;BME280;21820;51.112;13.762;2023-04-06T01:57:48;99842.03;;;21.53;56.93
35704;BME280;21820;51.112;13.762;2023-04-06T02:00:15;99843.94;;;21.51;57.20
35704;BME280;21820;51.112;13.762;2023-04-06T02:02:41;99839.66;;;21.50;57.40
35704;BME280;21820;51.112;13.762;2023-04-06T02:05:07;99847.50;;;21.50;57.43
35704;BME280;21820;51.112;13.762;2023-04-06T02:07:32;99834.13;;;21.44;57.08
35704;BME280;21820;51.112;13.762;2023-04-06T02:09:57;99840.34;;;21.52;57.37
35704;BME280;21820;51.112;13.762;2023-04-06T02:12:23;99842.03;;;21.53;57.09
35704;BME280;21820;51.112;13.762;2023-04-06T02:14:49;99831.28;;;21.56;57.54
35704;BME280;21820;51.112;13.762;2023-04-06T02:17:14;99841.75;;;21.56;57.09
35704;BME280;21820;51.112;13.762;2023-04-06T02:19:40;99831.28;;;21.56;57.29
35704;BME280;21820;51.112;13.762;2023-04-06T02:22:05;99837.31;;;21.57;57.53
35704;BME280;21820;51.112;13.762;2023-04-06T02:24:31;99821.91;;;21.54;57.22
35704;BME280;21820;51.112;13.762;2023-04-06T02:26:56;99828.69;;;21.56;57.14
35704;BME280;21820;51.112;13.762;2023-04-06T02:29:22;99827.69;;;21.57;57.53
35704;BME280;21820;51.112;13.762;2023-04-06T02:31:47;99823.31;;;21.58;57.61
35704;BME280;21820;51.112;13.762;2023-04-06T02:34:12;99822.47;;;21.57;58.01
35704;BME280;21820;51.112;13.762;2023-04-06T02:36:44;99804.84;;;21.50;58.41
35704;BME280;21820;51.112;13.762;2023-04-06T02:39:10;99816.97;;;21.60;57.35
35704;BME280;21820;51.112;13.762;2023-04-06T02:41:35;99818.91;;;21.58;57.06
35704;BME280;21820;51.112;13.762;2023-04-06T02:44:01;99805.63;;;21.50;57.81
35704;BME280;21820;51.112;13.762;2023-04-06T02:46:26;99824.16;;;21.58;57.60
35704;BME280;21820;51.112;13.762;2023-04-06T02:48:52;99818.91;;;21.58;58.08
35704;BME280;21820;51.112;13.762;2023-04-06T02:51:17;99825.78;;;21.59;56.97
35704;BME280;21820;51.112;13.762;2023-04-06T02:53:43;99825.50;;;21.62;57.97
35704;BME280;21820;51.112;13.762;2023-04-06T02:56:08;99820.00;;;21.65;57.53
35704;BME280;21820;51.112;13.762;2023-04-06T02:58:34;99821.94;;;21.63;58.46
35704;BME280;21820;51.112;13.762;2023-04-06T03:00:59;99825.78;;;21.59;57.97
35704;BME280;21820;51.112;13.762;2023-04-06T03:03:25;99817.94;;;21.59;58.12
35704;BME280;21820;51.112;13.762;2023-04-06T03:05:50;99827.28;;;21.62;58.23
35704;BME280;21820;51.112;13.762;2023-04-06T03:08:15;99827.19;;;21.63;58.09
35704;BME280;21820;51.112;13.762;2023-04-06T03:10:41;99830.47;;;21.65;57.70
35704;BME280;21820;51.112;13.762;2023-04-06T03:13:06;99833.22;;;21.64;58.66
35704;BME280;21820;51.112;13.762;2023-04-06T03:15:32;99828.00;;;21.64;57.98
35704;BME280;21820;51.112;13.762;2023-04-06T03:17:57;99832.41;;;21.63;57.55
35704;BME280;21820;51.112;13.762;2023-04-06T03:20:23;99832.16;;;21.66;58.33
35704;BME280;21820;51.112;13.762;2023-04-06T03:22:48;99823.31;;;21.67;58.53
35704;BME280;21820;51.112;13.762;2023-04-06T03:25:13;99825.81;;;21.69;57.83
35704;BME280;21820;51.112;13.762;2023-04-06T03:27:39;99830.19;;;21.68;58.07
35704;BME280;21820;51.112;13.762;2023-04-06T03:30:05;99825.22;;;21.65;57.89
35704;BME280;21820;51.112;13.762;2023-04-06T03:32:30;99827.19;;;21.63;57.51
35704;BME280;21820;51.112;13.762;2023-04-06T03:34:56;99831.16;;;21.58;57.48
35704;BME280;21820;51.112;13.762;2023-04-06T03:37:21;99831.88;;;21.69;56.97
35704;BME280;21820;51.112;13.762;2023-04-06T03:39:47;99814.31;;;22.19;55.58
35704;BME280;21820;51.112;13.762;2023-04-06T03:42:12;99840.66;;;23.11;52.40
35704;BME280;21820;51.112;13.762;2023-04-06T03:44:37;99840.75;;;23.83;50.35
35704;BME280;21820;51.112;13.762;2023-04-06T03:47:03;99838.16;;;24.54;49.06
35704;BME280;21820;51.112;13.762;2023-04-06T03:49:28;99841.75;;;24.96;47.30
35704;BME280;21820;51.112;13.762;2023-04-06T03:51:54;99843.53;;;25.21;47.31
35704;BME280;21820;51.112;13.762;2023-04-06T03:54:19;99845.41;;;25.28;46.40
35704;BME280;21820;51.112;13.762;2023-04-06T03:56:44;99850.19;;;25.33;46.08
35704;BME280;21820;51.112;13.762;2023-04-06T03:59:10;99826.31;;;25.26;46.08
35704;BME280;21820;51.112;13.762;2023-04-06T04:01:35;99850.78;;;25.52;45.85
35704;BME280;21820;51.112;13.762;2023-04-06T04:04:01;99844.75;;;25.60;46.33
35704;BME280;21820;51.112;13.762;2023-04-06T04:06:26;99846.25;;;25.70;45.49
35704;BME280;21820;51.112;13.762;2023-04-06T04:08:52;99845.47;;;25.78;45.26
35704;BME280;21820;51.112;13.762;2023-04-06T04:11:17;99829.94;;;25.67;45.11
35704;BME280;21820;51.112;13.762;2023-04-06T04:13:42;99847.78;;;25.81;45.16
35704;BME280;21820;51.112;13.762;2023-04-06T04:16:08;99846.16;;;25.88;45.43
35704;BME280;21820;51.112;13.762;2023-04-06T04:18:33;99843.53;;;25.96;45.13
35704;BME280;21820;51.112;13.762;2023-04-06T04:20:59;99844.72;;;26.02;45.10
35704;BME280;21820;51.112;13.762;2023-04-06T04:23:24;99851.75;;;25.93;44.82
35704;BME280;21820;51.112;13.762;2023-04-06T04:25:49;99852.25;;;25.97;44.87
35704;BME280;21820;51.112;13.762;2023-04-06T04:28:16;99856.03;;;25.86;45.09
35704;BME280;21820;51.112;13.762;2023-04-06T04:30:41;99858.63;;;25.78;45.63
35704;BME280;21820;51.112;13.762;2023-04-06T04:33:07;99844.78;;;25.76;45.66
35704;BME280;21820;51.112;13.762;2023-04-06T04:35:32;99855.19;;;25.86;45.38
35704;BME280;21820;51.112;13.762;2023-04-06T04:37:57;99857.16;;;25.84;45.41
35704;BME280;21820;51.112;13.762;2023-04-06T04:40:23;99856.34;;;25.83;45.43
35704;BME280;21820;51.112;13.762;2023-04-06T04:42:49;99853.56;;;25.85;45.15
35704;BME280;21820;51.112;13.762;2023-04-06T04:45:16;99854.53;;;25.92;45.60
35704;BME280;21820;51.112;13.762;2023-04-06T04:47:41;99861.66;;;25.99;45.21
35704;BME280;21820;51.112;13.762;2023-04-06T04:50:07;99858.84;;;26.01;45.47
35704;BME280;21820;51.112;13.762;2023-04-06T04:52:32;99853.13;;;26.05;45.21
35704;BME280;21820;51.112;13.762;2023-04-06T04:54:58;99847.84;;;26.13;45.14
35704;BME280;21820;51.112;13.762;2023-04-06T04:57:23;99844.25;;;26.14;44.69
35704;BME280;21820;51.112;13.762;2023-04-06T04:59:48;99848.84;;;26.04;44.75
35704;BME280;21820;51.112;13.762;2023-04-06T05:02:16;99848.47;;;25.91;45.54
35704;BME280;21820;51.112;13.762;2023-04-06T05:04:41;99852.69;;;25.76;45.93
35704;BME280;21820;51.112;13.762;2023-04-06T05:07:08;99858.53;;;25.54;46.42
35704;BME280;21820;51.112;13.762;2023-04-06T05:09:34;99834.00;;;25.20;46.77
35704;BME280;21820;51.112;13.762;2023-04-06T05:12:00;99852.72;;;25.09;47.16
35704;BME280;21820;51.112;13.762;2023-04-06T05:14:26;99870.41;;;24.99;47.48
35704;BME280;21820;51.112;13.762;2023-04-06T05:16:52;99871.94;;;24.84;47.69
35704;BME280;21820;51.112;13.762;2023-04-06T05:19:17;99874.00;;;24.72;48.05
35704;BME280;21820;51.112;13.762;2023-04-06T05:21:43;99881.25;;;24.78;48.68
35704;BME280;21820;51.112;13.762;2023-04-06T05:24:08;99876.88;;;24.87;47.83
35704;BME280;21820;51.112;13.762;2023-04-06T05:26:34;99873.78;;;24.91;47.97
35704;BME280;21820;51.112;13.762;2023-04-06T05:29:00;99875.03;;;25.05;47.27
35704;BME280;21820;51.112;13.762;2023-04-06T05:31:25;99880.38;;;25.21;47.24
35704;BME280;21820;51.112;13.762;2023-04-06T05:33:51;99879.16;;;25.33;47.03
35704;BME280;21820;51.112;13.762;2023-04-06T05:36:16;99879.56;;;25.46;46.62
35704;BME280;21820;51.112;13.762;2023-04-06T05:38:41;99889.16;;;25.55;46.07
35704;BME280;21820;51.112;13.762;2023-04-06T05:41:07;99883.59;;;25.66;46.47
35704;BME280;21820;51.112;13.762;2023-04-06T05:43:32;99873.75;;;25.68;45.95
35704;BME280;21820;51.112;13.762;2023-04-06T05:45:58;99887.63;;;25.86;46.02
35704;BME280;21820;51.112;13.762;2023-04-06T05:48:23;99881.69;;;25.84;45.56
35704;BME280;21820;51.112;13.762;2023-04-06T05:50:49;99885.75;;;26.04;45.18
35704;BME280;21820;51.112;13.762;2023-04-06T05:53:16;99864.59;;;25.88;45.31
35704;BME280;21820;51.112;13.762;2023-04-06T05:55:41;99884.50;;;25.83;45.23
35704;BME280;21820;51.112;13.762;2023-04-06T05:58:06;99880.84;;;25.76;46.07
35704;BME280;21820;51.112;13.762;2023-04-06T06:00:32;99888.38;;;25.62;45.96
35704;BME280;21820;51.112;13.762;2023-04-06T06:02:58;99881.84;;;25.41;46.32
35704;BME280;21820;51.112;13.762;2023-04-06T06:05:23;99877.72;;;25.13;47.78
35704;BME280;21820;51.112;13.762;2023-04-06T06:07:49;99883.59;;;25.07;47.60
35704;BME280;21820;51.112;13.762;2023-04-06T06:10:14;99868.91;;;24.71;48.33
35704;BME280;21820;51.112;13.762;2023-04-06T06:12:40;99879.00;;;24.66;48.31
35704;BME280;21820;51.112;13.762;2023-04-06T06:15:06;99880.28;;;24.62;48.54
35704;BME280;21820;51.112;13.762;2023-04-06T06:17:31;99875.56;;;24.48;49.52
35704;BME280;21820;51.112;13.762;2023-04-06T06:19:57;99877.97;;;24.59;48.71
35704;BME280;21820;51.112;13.762;2023-04-06T06:22:22;99883.22;;;24.59;49.15
35704;BME280;21820;51.112;13.762;2023-04-06T06:24:48;99874.88;;;24.81;48.26
35704;BME280;21820;51.112;13.762;2023-04-06T06:27:14;99880.72;;;24.92;48.13
35704;BME280;21820;51.112;13.762;2023-04-06T06:29:40;99878.53;;;25.13;47.71
35704;BME280;21820;51.112;13.762;2023-04-06T06:32:05;99879.78;;;25.27;47.75
35704;BME280;21820;51.112;13.762;2023-04-06T06:34:31;99877.56;;;25.40;46.55
35704;BME280;21820;51.112;13.762;2023-04-06T06:36:56;99883.59;;;25.58;46.92
35704;BME280;21820;51.112;13.762;2023-04-06T06:39:21;99878.34;;;25.66;46.00
35704;BME280;21820;51.112;13.762;2023-04-06T06:41:47;99883.47;;;25.76;46.31
35704;BME280;21820;51.112;13.762;2023-04-06T06:44:12;99876.44;;;25.92;45.52
35704;BME280;21820;51.112;13.762;2023-04-06T06:46:38;99860.31;;;25.95;45.75
35704;BME280;21820;51.112;13.762;2023-04-06T06:49:03;99878.75;;;25.95;45.18
35704;BME280;21820;51.112;13.762;2023-04-06T06:51:28;99886.66;;;25.95;45.92
35704;BME280;21820;51.112;13.762;2023-04-06T06:53:54;99887.63;;;25.78;45.65
35704;BME280;21820;51.112;13.762;2023-04-06T06:56:19;99888.84;;;25.58;46.47
35704;BME280;21820;51.112;13.762;2023-04-06T06:58:45;99884.25;;;25.34;46.88
35704;BME280;21820;51.112;13.762;2023-04-06T07:01:11;99893.22;;;25.24;47.57
35704;BME280;21820;51.112;13.762;2023-04-06T07:03:36;99891.13;;;25.02;47.67
35704;BME280;21820;51.112;13.762;2023-04-06T07:06:02;99891.03;;;24.86;48.60
35704;BME280;21820;51.112;13.762;2023-04-06T07:08:27;99879.28;;;24.63;48.38
35704;BME280;21820;51.112;13.762;2023-04-06T07:10:53;99896.50;;;24.57;49.33
35704;BME280;21820;51.112;13.762;2023-04-06T07:13:21;99893.28;;;24.45;49.05
35704;BME280;21820;51.112;13.762;2023-04-06T07:15:48;99891.94;;;24.41;49.74
35704;BME280;21820;51.112;13.762;2023-04-06T07:18:14;99890.28;;;24.40;49.92
35704;BME280;21820;51.112;13.762;2023-04-06T07:20:39;99889.16;;;24.43;49.90
35704;BME280;21820;51.112;13.762;2023-04-06T07:23:05;99892.00;;;24.67;49.12
35704;BME280;21820;51.112;13.762;2023-04-06T07:25:30;99894.63;;;24.85;48.65
35704;BME280;21820;51.112;13.762;2023-04-06T07:27:56;99887.50;;;25.03;47.67
35704;BME280;21820;51.112;13.762;2023-04-06T07:30:22;99885.97;;;25.18;47.37
35704;BME280;21820;51.112;13.762;2023-04-06T07:32:48;99883.00;;;25.38;46.83
35704;BME280;21820;51.112;13.762;2023-04-06T07:35:14;99891.63;;;25.56;46.35
35704;BME280;21820;51.112;13.762;2023-04-06T07:37:39;99872.41;;;25.64;46.38
35704;BME280;21820;51.112;13.762;2023-04-06T07:40:06;99882.63;;;25.75;46.68
35704;BME280;21820;51.112;13.762;2023-04-06T07:42:31;99879.53;;;25.72;46.48
35704;BME280;21820;51.112;13.762;2023-04-06T07:44:58;99881.28;;;25.63;46.64
35704;BME280;21820;51.112;13.762;2023-04-06T07:47:23;99881.72;;;25.50;47.01
35704;BME280;21820;51.112;13.762;2023-04-06T07:49:49;99875.16;;;25.29;47.38
35704;BME280;21820;51.112;13.762;2023-04-06T07:52:15;99881.19;;;25.13;47.95
35704;BME280;21820;51.112;13.762;2023-04-06T07:54:40;99884.16;;;24.93;48.50
35704;BME280;21820;51.112;13.762;2023-04-06T07:57:06;99881.41;;;24.77;49.05
35704;BME280;21820;51.112;13.762;2023-04-06T07:59:32;99876.81;;;24.61;49.49
35704;BME280;21820;51.112;13.762;2023-04-06T08:01:57;99875.25;;;24.51;49.08
35704;BME280;21820;51.112;13.762;2023-04-06T08:04:22;99881.41;;;24.41;49.98
35704;BME280;21820;51.112;13.762;2023-04-06T08:06:48;99882.63;;;24.29;50.00
35704;BME280;21820;51.112;13.762;2023-04-06T08:09:13;99879.91;;;24.21;50.21
35704;BME280;21820;51.112;13.762;2023-04-06T08:11:39;99880.22;;;24.18;50.62
35704;BME280;21820;51.112;13.762;2023-04-06T08:14:04;99882.53;;;24.04;50.36
35704;BME280;21820;51.112;13.762;2023-04-06T08:16:30;99881.44;;;24.06;50.43
35704;BME280;21820;51.112;13.762;2023-04-06T08:18:55;99884.22;;;23.95;51.40
35704;BME280;21820;51.112;13.762;2023-04-06T08:21:20;99876.94;;;23.89;51.21
35704;BME280;21820;51.112;13.762;2023-04-06T08:23:46;99880.41;;;23.80;51.75
35704;BME280;21820;51.112;13.762;2023-04-06T08:26:11;99891.53;;;23.74;52.08
35704;BME280;21820;51.112;13.762;2023-04-06T08:28:37;99887.13;;;23.65;52.11
35704;BME280;21820;51.112;13.762;2023-04-06T08:31:06;99889.91;;;23.64;51.62
35704;BME280;21820;51.112;13.762;2023-04-06T08:33:32;99886.63;;;23.62;51.98
35704;BME280;21820;51.112;13.762;2023-04-06T08:36:09;99875.84;;;23.55;51.87
35704;BME280;21820;51.112;13.762;2023-04-06T08:38:35;99880.53;;;23.61;52.41
35704;BME280;21820;51.112;13.762;2023-04-06T08:41:07;99887.19;;;23.56;52.12
35704;BME280;21820;51.112;13.762;2023-04-06T08:43:33;99859.22;;;23.47;52.15
35704;BME280;21820;51.112;13.762;2023-04-06T08:46:00;99864.88;;;23.42;52.28
35704;BME280;21820;51.112;13.762;2023-04-06T08:48:26;99877.44;;;23.48;52.56
35704;BME280;21820;51.112;13.762;2023-04-06T08:50:52;99872.19;;;23.48;52.92
35704;BME280;21820;51.112;13.762;2023-04-06T08:53:18;99852.78;;;23.32;52.46
35704;BME280;21820;51.112;13.762;2023-04-06T08:55:44;99873.72;;;23.41;53.14
35704;BME280;21820;51.112;13.762;2023-04-06T08:58:09;99870.69;;;23.36;52.50
35704;BME280;21820;51.112;13.762;2023-04-06T09:00:38;99868.06;;;23.36;53.18
35704;BME280;21820;51.112;13.762;2023-04-06T09:03:04;99872.50;;;23.36;52.79
35704;BME280;21820;51.112;13.762;2023-04-06T09:05:32;99847.41;;;23.23;53.18
35704;BME280;21820;51.112;13.762;2023-04-06T09:07:57;99871.56;;;23.27;53.17
35704;BME280;21820;51.112;13.762;2023-04-06T09:10:22;99871.00;;;23.23;52.79
35704;BME280;21820;51.112;13.762;2023-04-06T09:12:50;99856.66;;;23.18;52.93
35704;BME280;21820;51.112;13.762;2023-04-06T09:15:20;99874.88;;;23.29;53.15
35704;BME280;21820;51.112;13.762;2023-04-06T09:17:46;99871.69;;;23.35;52.53
35704;BME280;21820;51.112;13.762;2023-04-06T09:20:11;99872.94;;;23.31;52.52
35704;BME280;21820;51.112;13.762;2023-04-06T09:22:40;99875.41;;;23.33;52.95
35704;BME280;21820;51.112;13.762;2023-04-06T09:25:08;99870.84;;;23.35;53.03
35704;BME280;21820;51.112;13.762;2023-04-06T09:27:37;99869.06;;;23.35;52.61
35704;BME280;21820;51.112;13.762;2023-04-06T09:30:07;99864.06;;;23.32;52.54
35704;BME280;21820;51.112;13.762;2023-04-06T09:32:50;99863.94;;;23.24;53.14
35704;BME280;21820;51.112;13.762;2023-04-06T09:35:17;99862.16;;;23.24;53.45
35704;BME280;21820;51.112;13.762;2023-04-06T09:37:43;99856.66;;;23.28;53.44
35704;BME280;21820;51.112;13.762;2023-04-06T09:40:09;99861.59;;;23.31;52.82
35704;BME280;21820;51.112;13.762;2023-04-06T09:42:35;99856.91;;;23.24;53.38
35704;BME280;21820;51.112;13.762;2023-04-06T09:45:01;99859.13;;;23.29;53.15
35704;BME280;21820;51.112;13.762;2023-04-06T09:47:27;99853.75;;;23.21;53.41
35704;BME280;21820;51.112;13.762;2023-04-06T09:49:57;99856.06;;;23.24;53.24
35704;BME280;21820;51.112;13.762;2023-04-06T09:52:29;99851.81;;;23.23;53.22
35704;BME280;21820;51.112;13.762;2023-04-06T09:54:59;99853.16;;;23.37;52.48
35704;BME280;21820;51.112;13.762;2023-04-06T09:57:49;99851.09;;;23.40;52.77
35704;BME280;21820;51.112;13.762;2023-04-06T10:00:17;99854.59;;;23.58;51.77
35704;BME280;21820;51.112;13.762;2023-04-06T10:03:10;99847.44;;;23.95;51.02
35704;BME280;21820;51.112;13.762;2023-04-06T10:08:11;99829.78;;;24.32;50.30
35704;BME280;21820;51.112;13.762;2023-04-06T10:10:37;99841.16;;;24.59;49.02
35704;BME280;21820;51.112;13.762;2023-04-06T10:13:07;99852.03;;;24.81;49.03
35704;BME280;21820;51.112;13.762;2023-04-06T10:15:33;99848.22;;;25.01;48.42
35704;BME280;21820;51.112;13.762;2023-04-06T10:17:59;99842.03;;;25.10;48.11
35704;BME280;21820;51.112;13.762;2023-04-06T10:20:49;99846.72;;;25.32;47.49
35704;BME280;21820;51.112;13.762;2023-04-06T10:23:48;99840.78;;;25.30;47.51
35704;BME280;21820;51.112;13.762;2023-04-06T10:26:15;99837.97;;;25.24;48.12
35704;BME280;21820;51.112;13.762;2023-04-06T10:28:42;99838.88;;;25.07;47.84
35704;BME280;21820;51.112;13.762;2023-04-06T10:31:08;99846.06;;;24.97;48.81
35704;BME280;21820;51.112;13.762;2023-04-06T10:33:34;99841.50;;;24.81;49.51
35704;BME280;21820;51.112;13.762;2023-04-06T10:36:13;99841.16;;;24.59;49.30
35704;BME280;21820;51.112;13.762;2023-04-06T10:38:39;99842.06;;;24.49;49.41
35704;BME280;21820;51.112;13.762;2023-04-06T10:41:06;99827.34;;;24.21;50.48
35704;BME280;21820;51.112;13.762;2023-04-06T10:43:34;99838.84;;;24.20;50.88
35704;BME280;21820;51.112;13.762;2023-04-06T10:46:04;99822.94;;;24.04;50.52
35704;BME280;21820;51.112;13.762;2023-04-06T10:48:41;99840.53;;;23.94;51.24
35704;BME280;21820;51.112;13.762;2023-04-06T10:51:16;99840.47;;;23.86;51.36
35704;BME280;21820;51.112;13.762;2023-04-06T10:53:44;99833.16;;;23.80;51.62
35704;BME280;21820;51.112;13.762;2023-04-06T10:56:12;99838.41;;;23.80;51.99
35704;BME280;21820;51.112;13.762;2023-04-06T10:58:37;99830.16;;;23.75;51.54
35704;BME280;21820;51.112;13.762;2023-04-06T11:01:03;99829.97;;;23.86;51.23
35704;BME280;21820;51.112;13.762;2023-04-06T11:03:28;99830.31;;;24.01;51.37
35704;BME280;21820;51.112;13.762;2023-04-06T11:05:54;99822.06;;;24.31;50.31
35704;BME280;21820;51.112;13.762;2023-04-06T11:08:26;99831.47;;;24.59;49.65
35704;BME280;21820;51.112;13.762;2023-04-06T11:10:52;99824.84;;;24.73;49.21
35704;BME280;21820;51.112;13.762;2023-04-06T11:13:17;99813.97;;;24.93;48.87
35704;BME280;21820;51.112;13.762;2023-04-06T11:15:43;99821.38;;;24.98;48.59
35704;BME280;21820;51.112;13.762;2023-04-06T11:18:08;99804.00;;;25.05;48.10
35704;BME280;21820;51.112;13.762;2023-04-06T11:20:34;99807.31;;;25.07;48.51
35704;BME280;21820;51.112;13.762;2023-04-06T11:22:59;99805.91;;;24.95;48.83
35704;BME280;21820;51.112;13.762;2023-04-06T11:25:25;99810.00;;;24.89;48.35
35704;BME280;21820;51.112;13.762;2023-04-06T11:27:52;99803.81;;;24.73;49.14
35704;BME280;21820;51.112;13.762;2023-04-06T11:30:18;99794.47;;;24.53;49.13
35704;BME280;21820;51.112;13.762;2023-04-06T11:32:45;99804.19;;;24.34;49.49
35704;BME280;21820;51.112;13.762;2023-04-06T11:35:33;99810.03;;;24.28;49.94
35704;BME280;21820;51.112;13.762;2023-04-06T11:37:57;99806.13;;;24.15;51.12
35704;BME280;21820;51.112;13.762;2023-04-06T11:40:23;99777.22;;;23.97;50.86
35704;BME280;21820;51.112;13.762;2023-04-06T11:42:54;99793.97;;;23.96;51.15
35704;BME280;21820;51.112;13.762;2023-04-06T11:45:19;99793.84;;;23.88;51.21
35704;BME280;21820;51.112;13.762;2023-04-06T11:47:45;99800.03;;;23.79;51.33
35704;BME280;21820;51.112;13.762;2023-04-06T11:50:12;99790.53;;;23.69;52.07
35704;BME280;21820;51.112;13.762;2023-04-06T11:52:41;99793.09;;;23.61;52.26
35704;BME280;21820;51.112;13.762;2023-04-06T11:55:18;99783.34;;;23.53;52.64
35704;BME280;21820;51.112;13.762;2023-04-06T11:57:44;99787.44;;;23.56;52.69
35704;BME280;21820;51.112;13.762;2023-04-06T12:00:11;99788.59;;;23.53;52.73
35704;BME280;21820;51.112;13.762;2023-04-06T12:02:37;99788.53;;;23.63;52.49
35704;BME280;21820;51.112;13.762;2023-04-06T12:05:04;99784.88;;;23.73;52.01
35704;BME280;21820;51.112;13.762;2023-04-06T12:07:30;99784.13;;;23.98;51.21
35704;BME280;21820;51.112;13.762;2023-04-06T12:09:56;99782.31;;;24.16;50.85
35704;BME280;21820;51.112;13.762;2023-04-06T12:12:21;99787.63;;;24.42;50.43
35704;BME280;21820;51.112;13.762;2023-04-06T12:14:47;99782.94;;;24.71;49.66
35704;BME280;21820;51.112;13.762;2023-04-06T12:17:12;99782.00;;;24.80;49.50
35704;BME280;21820;51.112;13.762;2023-04-06T12:19:38;99780.84;;;25.08;48.39
35704;BME280;21820;51.112;13.762;2023-04-06T12:22:03;99776.75;;;25.14;48.21
35704;BME280;21820;51.112;13.762;2023-04-06T12:24:29;99761.09;;;25.12;48.54
35704;BME280;21820;51.112;13.762;2023-04-06T12:26:54;99770.81;;;25.12;47.64
35704;BME280;21820;51.112;13.762;2023-04-06T12:29:20;99766.94;;;24.90;48.82
35704;BME280;21820;51.112;13.762;2023-04-06T12:31:45;99763.44;;;24.82;49.01
35704;BME280;21820;51.112;13.762;2023-04-06T12:34:11;99768.22;;;24.61;49.54
35704;BME280;21820;51.112;13.762;2023-04-06T12:36:37;99758.16;;;24.56;49.94
35704;BME280;21820;51.112;13.762;2023-04-06T12:39:02;99758.16;;;24.30;50.29
35704;BME280;21820;51.112;13.762;2023-04-06T12:41:28;99750.22;;;24.22;50.24
35704;BME280;21820;51.112;13.762;2023-04-06T12:43:55;99753.06;;;24.11;50.94
35704;BME280;21820;51.112;13.762;2023-04-06T12:46:20;99756.19;;;23.97;50.93
35704;BME280;21820;51.112;13.762;2023-04-06T12:48:46;99751.56;;;23.91;51.42